createdAt,value
2022-09-04T00:05:48.063Z,7.28
2022-09-04T00:12:35.262Z,4.72
2022-09-04T00:19:37.777Z,6.07
2022-09-04T00:26:27.653Z,5.18
2022-09-04T00:33:38.137Z,5.32
2022-09-04T00:40:31.685Z,7.57
2022-09-04T00:47:36.053Z,6.32
2022-09-04T00:54:40.198Z,5.95
2022-09-04T01:01:27.470Z,6.57
2022-09-04T01:08:16.754Z,6.95
2022-09-04T01:15:20.528Z,6.68
2022-09-04T01:22:14.819Z,6.88
2022-09-04T01:29:30.992Z,5.43
2022-09-04T01:36:29.542Z,7.78
2022-09-04T01:43:18.467Z,8.82
2022-09-04T01:50:08.081Z,7.32
2022-09-04T01:57:09.073Z,7.10
2022-09-04T02:04:12.552Z,8.20
2022-09-04T02:11:02.663Z,10.88
2022-09-04T02:17:48.891Z,8.82
2022-09-04T02:24:59.106Z,8.07
2022-09-04T02:32:09.582Z,8.23
2022-09-04T02:39:17.143Z,7.65
2022-09-04T02:46:09.144Z,8.63
2022-09-04T02:53:24.156Z,8.02
2022-09-04T03:00:21.210Z,10.15
2022-09-04T03:07:17.856Z,9.75
2022-09-04T03:14:12.066Z,12.38
2022-09-04T03:21:03.325Z,11.85
2022-09-04T03:27:46.457Z,9.68
2022-09-04T03:34:35.029Z,9.60
2022-09-04T03:41:46.605Z,10.60
2022-09-04T03:48:35.034Z,7.90
2022-09-04T03:55:33.434Z,9.93
2022-09-04T04:02:34.361Z,8.55
2022-09-04T04:09:46.256Z,8.93
2022-09-04T04:16:55.937Z,9.23
2022-09-04T04:23:56.784Z,9.73
2022-09-04T04:30:52.311Z,8.88
2022-09-04T04:37:43.519Z,11.30
2022-09-04T04:45:10.559Z,12.55
2022-09-04T04:52:18.995Z,13.75
2022-09-04T04:59:34.804Z,15.40
2022-09-04T05:06:23.215Z,15.10
2022-09-04T05:13:05.534Z,10.60
2022-09-04T05:20:09.594Z,10.95
2022-09-04T05:27:09.009Z,10.20
2022-09-04T05:34:03.988Z,9.10
2022-09-04T05:41:06.393Z,7.82
2022-09-04T05:48:33.361Z,6.95
2022-09-04T05:55:42.838Z,10.10
2022-09-04T06:02:38.647Z,6.05
2022-09-04T06:09:42.117Z,3.55
2022-09-04T06:17:02.578Z,3.47
2022-09-04T06:24:00.224Z,5.88
2022-09-04T06:30:56.100Z,4.00
2022-09-04T06:38:24.095Z,3.60
2022-09-04T06:45:22.578Z,4.18
2022-09-04T06:52:17.708Z,4.43
2022-09-04T06:59:18.369Z,3.05
2022-09-04T07:06:12.401Z,14.95
2022-09-04T07:13:18.000Z,3.10
2022-09-04T07:20:17.085Z,3.80
2022-09-04T07:27:10.984Z,4.00
2022-09-04T07:34:14.180Z,4.95
2022-09-04T07:41:33.582Z,3.50
2022-09-04T07:48:24.018Z,3.22
2022-09-04T07:55:12.072Z,3.55
2022-09-04T08:02:43.894Z,3.58
2022-09-04T08:09:38.299Z,3.42
2022-09-04T08:16:30.407Z,3.47
2022-09-04T08:23:32.526Z,3.42
2022-09-04T08:30:18.575Z,3.03
2022-09-04T08:37:21.052Z,3.67
2022-09-04T08:44:21.965Z,2.65
2022-09-04T08:51:42.368Z,2.60
2022-09-04T08:58:51.053Z,2.33
2022-09-04T09:06:13.126Z,2.00
2022-09-04T09:13:14.294Z,2.58
2022-09-04T09:20:03.930Z,3.47
2022-09-04T09:27:05.813Z,2.35
2022-09-04T09:34:21.250Z,4.18
2022-09-04T09:41:24.706Z,3.45
2022-09-04T09:48:37.254Z,4.93
2022-09-04T09:55:48.727Z,2.40
2022-09-04T10:03:00.144Z,3.20
2022-09-04T10:09:52.108Z,1.92
2022-09-04T10:17:09.160Z,5.05
2022-09-04T10:24:15.796Z,3.38
2022-09-04T10:31:27.089Z,4.00
2022-09-04T10:38:28.239Z,1.98
2022-09-04T10:45:20.849Z,2.17
2022-09-04T10:52:30.235Z,1.52
2022-09-04T11:00:00.414Z,5.68
2022-09-04T11:06:57.692Z,1.83
2022-09-04T11:14:03.610Z,1.60
2022-09-04T11:21:20.991Z,2.42
2022-09-04T11:28:15.753Z,2.47
2022-09-04T11:35:10.248Z,3.40
2022-09-04T11:41:58.385Z,1.73
2022-09-04T11:49:09.679Z,1.65
2022-09-04T11:56:10.485Z,2.00
2022-09-04T12:03:44.164Z,2.55
2022-09-04T12:10:52.804Z,3.28
2022-09-04T12:17:50.003Z,2.95
2022-09-04T12:24:48.850Z,1.60
2022-09-04T12:31:39.907Z,2.60
2022-09-04T12:39:01.331Z,3.60
2022-09-04T12:45:48.154Z,2.17
2022-09-04T12:52:52.117Z,1.50
2022-09-04T12:59:46.634Z,2.20
2022-09-04T13:06:37.370Z,2.58
2022-09-04T13:13:42.209Z,2.00
2022-09-04T13:20:54.777Z,4.97
2022-09-04T13:27:49.271Z,1.73
2022-09-04T13:34:44.239Z,3.03
2022-09-04T13:41:38.582Z,2.17
2022-09-04T13:48:40.175Z,3.15
2022-09-04T13:55:29.429Z,1.98
2022-09-04T14:02:14.571Z,2.90
2022-09-04T14:09:05.099Z,1.67
2022-09-04T14:16:01.724Z,4.05
2022-09-04T14:22:53.061Z,2.42
2022-09-04T14:29:53.811Z,2.85
2022-09-04T14:36:43.078Z,2.97
2022-09-04T14:43:49.695Z,2.80
2022-09-04T14:50:47.995Z,2.92
2022-09-04T14:57:36.457Z,2.40
2022-09-04T15:04:23.922Z,2.10
2022-09-04T15:11:10.144Z,2.20
2022-09-04T15:18:15.751Z,2.28
2022-09-04T15:25:06.176Z,1.80
2022-09-04T15:31:59.706Z,2.97
2022-09-04T15:38:55.828Z,1.77
2022-09-04T15:45:53.245Z,2.50
2022-09-04T15:52:49.420Z,2.38
2022-09-04T16:00:03.714Z,2.80
2022-09-04T16:07:19.412Z,1.70
2022-09-04T16:14:10.098Z,4.13
2022-09-04T16:20:57.955Z,6.13
2022-09-04T16:27:54.169Z,2.08
2022-09-04T16:34:47.980Z,3.20
2022-09-04T16:41:49.017Z,2.13
2022-09-04T16:48:39.959Z,2.42
2022-09-04T16:55:34.391Z,2.00
2022-09-04T17:02:22.462Z,2.78
2022-09-04T17:09:42.286Z,2.40
2022-09-04T17:16:32.485Z,2.00
2022-09-04T17:29:18.963Z,3.13
2022-09-04T17:30:51.397Z,2.15
2022-09-04T17:40:54.950Z,3.33
2022-09-04T17:45:35.103Z,7.90
2022-09-04T17:52:26.968Z,2.13
2022-09-04T17:59:19.394Z,4.28
2022-09-04T18:06:08.950Z,3.13
2022-09-04T18:13:36.283Z,6.28
2022-09-04T18:20:37.779Z,3.13
2022-09-04T18:27:44.628Z,3.45
2022-09-04T18:37:17.021Z,4.50
2022-09-04T18:49:18.049Z,3.90
2022-09-04T18:50:43.933Z,5.15
2022-09-04T18:56:27.533Z,2.97
2022-09-04T19:03:20.049Z,4.50
2022-09-04T19:10:09.055Z,5.07
2022-09-04T19:17:06.287Z,3.05
2022-09-04T19:24:17.509Z,4.00
2022-09-04T19:31:08.698Z,7.43
2022-09-04T19:42:45.993Z,4.60
2022-09-04T19:46:18.623Z,3.33
2022-09-04T19:53:36.174Z,24.83
2022-09-04T19:59:28.578Z,8.60
2022-09-04T20:06:21.631Z,3.88
2022-09-04T20:13:24.731Z,6.88
2022-09-04T20:20:21.176Z,4.65
2022-09-04T20:27:17.612Z,4.38
2022-09-04T20:34:18.202Z,4.70
2022-09-04T20:41:32.249Z,5.95
2022-09-04T20:52:55.064Z,6.82
2022-09-04T20:55:50.020Z,6.25
2022-09-04T21:03:17.248Z,4.60
2022-09-04T21:10:22.630Z,8.07
2022-09-04T21:17:32.075Z,7.15
2022-09-04T21:24:29.798Z,5.82
2022-09-04T21:31:44.564Z,5.20
2022-09-04T21:38:55.419Z,4.63
2022-09-04T21:45:55.592Z,4.32
2022-09-04T21:53:17.113Z,5.40
2022-09-04T22:02:40.985Z,6.18
2022-09-04T22:12:58.757Z,8.82
2022-09-04T22:15:00.971Z,4.35
2022-09-04T22:22:25.368Z,3.85
2022-09-04T22:29:40.297Z,4.63
2022-09-04T22:36:59.041Z,6.40
2022-09-04T22:43:57.322Z,5.93
2022-09-04T22:50:59.039Z,5.10
2022-09-04T22:57:56.168Z,5.15
2022-09-04T23:04:53.700Z,5.40
2022-09-04T23:13:57.623Z,6.03
2022-09-04T23:23:03.074Z,4.65
2022-09-04T23:27:00.255Z,5.75
2022-09-04T23:34:07.064Z,5.25
2022-09-04T23:40:59.110Z,5.85
2022-09-04T23:48:02.562Z,4.90
2022-09-04T23:55:12.085Z,4.82
